Station info - map view · info · telemetry · weather · raw · status · beacons · messages · bulletins · browse · moving · my account
Callsign, ship name or locator: Clear       
It is possible to search using wildcards (*?) after a prefix. Example: OH*
APRS station W7PCF - show graphs
Map loading...
Comment: w7pcf@yahoo.com
Last status: TinyTrak3 v1.1
Location: 35°58.03' N 114°53.49' W - locator DM25NX32AC - show map - static map
3.4 miles West bearing 257° from Boulder City, Clark County, Nevada, United States [?]
7.1 miles Southeast bearing 135° from Henderson, Clark County, Nevada, United States
19.8 miles Southeast bearing 136° from Las Vegas, Clark County, Nevada, United States
Last position: 2017-09-15 00:41:55 EDT (7d 19h42m ago)
2017-09-14 21:41:55 PDT local time at Boulder City, United States [?]
Altitude: 2329 ft
Course: 93°
Speed: 58 MPH
Last telemetry: 2016-10-17 22:16:34 EDT (339d 22h7m ago) – show telemetry
Ch 1: 410, Ch 2: 619, Ch 3: 0, Ch 4: 0, Ch 5: 0
 1     2     3     4     5     6     7     8 
Device: Byonics: TinyTrak3 (tracker)
Last path: W7PCF>APT311 via N7ZEV-1,WIDE1*,WIDE2-1,qAS,AA5QJ-1 (good)
Positions stored: 34043
Stations near current position of W7PCF - show more
callsign distance last heard - EDT      callsign distance last heard - EDT
NV0X-23.1 miles 315°2017-09-22 10:43:43 IRLP-32523.7 miles 317°2017-09-22 19:59:12
KJ6OFA-96.4 miles 298°2017-08-28 00:19:00 W7AES A8.6 miles 260°2017-09-22 20:22:09
W7AES AD8.6 miles 260°2017-09-22 20:22:10 W7AES B8.6 miles 260°2017-09-22 20:22:10
W7AES C8.6 miles 260°2017-09-22 20:22:11 W7AES-C8.6 miles 260°2017-09-22 20:21:56
W7AES-B8.6 miles 260°2017-09-22 20:21:55 W7AES-A8.6 miles 260°2017-09-22 20:21:55
K7STI8.6 miles 296°2017-09-22 17:12:41 KE7TBB8.7 miles 260°2017-09-21 14:09:34
K7KRN-99.2 miles 329°2017-09-15 14:44:35 W1EHU9.6 miles 353°2017-09-19 08:35:11
KI7PIV9.7 miles 301°2017-09-13 19:52:35 WA4PDM10.2 miles 281°2017-09-22 20:13:05
FW006910.5 miles 274°2017-09-22 20:20:41 AS73210.5 miles 272°2017-09-03 00:30:01
W7MFA10.5 miles 272°2017-09-20 23:10:27 KA7GOO10.7 miles 283°2017-09-22 20:17:19
Stations which heard W7PCF directly on radio –
callsign pkts first heard - EDT last heard longest (tx => rx) longest at - EDT
W7MOT-3 37 2017-09-05 11:05:31 2017-09-14 17:39:25 DM43JG > DM33RN 79.3 miles 286° 2017-09-05 12:07:29
N7ZEV-3 6 2017-09-14 19:56:54 2017-09-15 00:33:56 DM25QW > DM26FH 58.7 miles 297° 2017-09-14 19:56:54
N7ZEV-1 33 2017-09-14 19:32:58 2017-09-15 00:41:55 DM25TN > DM25GV 65.5 miles 289° 2017-09-14 19:32:58
LEMMON 1 2017-09-14 15:43:31 2017-09-14 15:43:31 DM43AQ > DM42OK 109.8 miles 140° 2017-09-14 15:43:31
CABALL 6 2017-09-05 17:03:56 2017-09-05 18:43:35 DM52IV > DM62JX 121.3 miles 87° 2017-09-05 18:43:35
GPARZ 45 2017-09-05 14:41:01 2017-09-05 18:55:25 DM52BW > DM52IV 32.4 miles 94° 2017-09-05 14:41:01
JACKPK 16 2017-09-05 16:38:01 2017-09-05 18:49:27 DM52IV > DM52SN 55.7 miles 112° 2017-09-05 18:49:27
MULE 4 2017-09-05 15:54:10 2017-09-05 18:03:45 DM52IV > DM51AL 104.1 miles 201° 2017-09-05 18:03:45
W7MOT-10 3 2017-09-05 11:33:29 2017-09-14 15:09:21 DM43BJ > DM43HV 44.1 miles 34° 2017-09-14 15:09:21
KD6GHX 8 2017-09-14 18:39:11 2017-09-14 19:21:00 DM35CE > DM25XI 17.4 miles 316° 2017-09-14 18:39:11
HAYDEN 41 2017-09-14 17:21:28 2017-09-14 19:28:59 DM34LE > DM35BB 78.0 miles 322° 2017-09-14 17:21:28
KY7K-10 6 2017-09-05 11:49:26 2017-09-05 13:25:14 DM43OG > DM41EW 102.1 miles 208° 2017-09-05 13:25:14
AA1OV-1 3 2017-09-05 17:31:51 2017-09-05 18:09:42 DM52IV > DM41TW 88.4 miles 223° 2017-09-05 18:09:42
ALPAZ 1 2017-09-05 18:17:41 2017-09-05 18:17:41 DM52IV > DM53KT 65.5 miles 7° 2017-09-05 18:17:41
K0OTZ-7 11 2017-09-05 11:31:29 2017-09-14 15:45:29 DM43EJ > DM43BM 19.5 miles 301° 2017-09-05 11:43:27
N0DAJ 17 2017-09-14 16:29:30 2017-09-14 17:09:30 DM33QU > DM34OA 13.1 miles 317° 2017-09-14 16:29:30
AA7K-2 1 2017-09-05 10:57:33 2017-09-05 10:57:33 DM43BI > DM43DF 12.1 miles 131° 2017-09-05 10:57:33
GREENS 2 2017-09-05 13:03:17 2017-09-05 13:53:09 DM43OG > DM54FC 89.3 miles 49° 2017-09-05 13:03:17
KE7JVX-3 62 2017-09-05 10:53:33 2017-09-14 15:11:21 DM52IV > DM43OG 91.4 miles 288° 2017-09-05 18:53:24

Only position packets which were originated by the station are shown here. The range statistics show some extra long hops, because some digipeaters do not correctly add themselves to the digipeater path. Please check the raw packets.
About this site
This page shows real-time information collected from the Automatic Position Reporting System Internet network (APRS-IS). APRS is used by amateur (ham) radio operators to transmit real-time position information, weather data, telemetry and messages over the radio. A vehicle equipped with a GPS receiver, a VHF transmitter or HF transceiver and a small computer device called a tracker transmits it's location, speed and course in a small data packet, which is then received by a nearby iGate receiving site which forwards the packet on the Internet. Systems connected to the Internet can send information on the APRS-IS without a radio transmitter, or collect and display information transmitted anywhere in the world.
FAQ · Blog · Discussion group · Linking to aprs.fi · AIS sites · Service status · Database statistics · Advertising on aprs.fi · Technical details · API · Change log · Planned changes · Credits and thanks · Terms Of Service · iPhone/iPad APRS